sensor_id;sensor_type;location;lat;lon;timestamp;temperature;humidity
16958;DHT22;8595;52.542;11.974;2023-06-22T00:02:00;22.70;99.90
16958;DHT22;8595;52.542;11.974;2023-06-22T00:04:27;22.70;99.90
16958;DHT22;8595;52.542;11.974;2023-06-22T00:06:54;22.70;99.90
16958;DHT22;8595;52.542;11.974;2023-06-22T00:09:21;22.70;99.90
16958;DHT22;8595;52.542;11.974;2023-06-22T00:11:48;22.60;99.90
16958;DHT22;8595;52.542;11.974;2023-06-22T00:14:16;22.60;99.90
16958;DHT22;8595;52.542;11.974;2023-06-22T00:16:43;22.50;99.90
16958;DHT22;8595;52.542;11.974;2023-06-22T00:19:14;22.60;99.90
16958;DHT22;8595;52.542;11.974;2023-06-22T00:21:40;22.40;99.90
16958;DHT22;8595;52.542;11.974;2023-06-22T00:24:08;22.40;99.90
16958;DHT22;8595;52.542;11.974;2023-06-22T00:26:34;22.30;99.90
16958;DHT22;8595;52.542;11.974;2023-06-22T00:29:01;22.30;99.90
16958;DHT22;8595;52.542;11.974;2023-06-22T00:31:29;22.20;99.90
16958;DHT22;8595;52.542;11.974;2023-06-22T00:33:56;22.20;99.90
16958;DHT22;8595;52.542;11.974;2023-06-22T00:36:22;22.30;99.90
16958;DHT22;8595;52.542;11.974;2023-06-22T00:38:50;22.30;99.90
16958;DHT22;8595;52.542;11.974;2023-06-22T00:41:17;22.30;99.90
16958;DHT22;8595;52.542;11.974;2023-06-22T00:43:44;22.30;99.90
16958;DHT22;8595;52.542;11.974;2023-06-22T00:46:11;22.30;99.90
16958;DHT22;8595;52.542;11.974;2023-06-22T00:48:40;22.30;99.90
16958;DHT22;8595;52.542;11.974;2023-06-22T00:51:09;22.30;99.90
16958;DHT22;8595;52.542;11.974;2023-06-22T00:53:36;22.30;99.90
16958;DHT22;8595;52.542;11.974;2023-06-22T00:56:04;22.20;99.90
16958;DHT22;8595;52.542;11.974;2023-06-22T00:58:32;22.20;99.90
16958;DHT22;8595;52.542;11.974;2023-06-22T01:00:59;22.20;99.90
16958;DHT22;8595;52.542;11.974;2023-06-22T01:03:26;22.20;99.90
16958;DHT22;8595;52.542;11.974;2023-06-22T01:06:01;22.10;99.90
16958;DHT22;8595;52.542;11.974;2023-06-22T01:08:33;22.10;99.90
16958;DHT22;8595;52.542;11.974;2023-06-22T01:11:07;22.10;99.90
16958;DHT22;8595;52.542;11.974;2023-06-22T01:13:37;22.10;99.90
16958;DHT22;8595;52.542;11.974;2023-06-22T01:16:09;22.10;99.90
16958;DHT22;8595;52.542;11.974;2023-06-22T01:18:40;22.00;99.90
16958;DHT22;8595;52.542;11.974;2023-06-22T01:21:11;22.00;99.90
16958;DHT22;8595;52.542;11.974;2023-06-22T01:23:54;21.90;99.90
16958;DHT22;8595;52.542;11.974;2023-06-22T01:26:32;21.90;99.90
16958;DHT22;8595;52.542;11.974;2023-06-22T01:29:04;21.80;99.90
16958;DHT22;8595;52.542;11.974;2023-06-22T01:31:32;21.80;99.90
16958;DHT22;8595;52.542;11.974;2023-06-22T01:34:06;21.80;99.90
16958;DHT22;8595;52.542;11.974;2023-06-22T01:36:34;21.80;99.90
16958;DHT22;8595;52.542;11.974;2023-06-22T01:39:02;21.80;99.90
16958;DHT22;8595;52.542;11.974;2023-06-22T01:41:35;21.70;99.90
16958;DHT22;8595;52.542;11.974;2023-06-22T01:44:05;21.70;99.90
16958;DHT22;8595;52.542;11.974;2023-06-22T01:46:34;21.60;99.90
16958;DHT22;8595;52.542;11.974;2023-06-22T01:49:02;21.50;99.90
16958;DHT22;8595;52.542;11.974;2023-06-22T01:51:29;21.60;99.90
16958;DHT22;8595;52.542;11.974;2023-06-22T01:53:56;21.50;99.90
16958;DHT22;8595;52.542;11.974;2023-06-22T01:56:23;21.50;99.90
16958;DHT22;8595;52.542;11.974;2023-06-22T01:59:04;21.50;99.90
16958;DHT22;8595;52.542;11.974;2023-06-22T02:01:42;21.50;99.90
16958;DHT22;8595;52.542;11.974;2023-06-22T02:04:13;21.40;99.90
16958;DHT22;8595;52.542;11.974;2023-06-22T02:06:46;21.50;99.90
16958;DHT22;8595;52.542;11.974;2023-06-22T02:09:16;21.40;99.90
16958;DHT22;8595;52.542;11.974;2023-06-22T02:11:45;21.40;99.90
16958;DHT22;8595;52.542;11.974;2023-06-22T02:14:13;21.40;99.90
16958;DHT22;8595;52.542;11.974;2023-06-22T02:16:42;21.40;99.90
16958;DHT22;8595;52.542;11.974;2023-06-22T02:19:09;21.40;99.90
16958;DHT22;8595;52.542;11.974;2023-06-22T02:21:36;21.40;99.90
16958;DHT22;8595;52.542;11.974;2023-06-22T02:24:04;21.40;99.90
16958;DHT22;8595;52.542;11.974;2023-06-22T02:26:31;21.30;99.90
16958;DHT22;8595;52.542;11.974;2023-06-22T02:28:59;21.30;99.90
16958;DHT22;8595;52.542;11.974;2023-06-22T02:31:26;21.30;99.90
16958;DHT22;8595;52.542;11.974;2023-06-22T02:33:57;21.20;99.90
16958;DHT22;8595;52.542;11.974;2023-06-22T02:36:24;21.20;99.90
16958;DHT22;8595;52.542;11.974;2023-06-22T02:38:52;21.20;99.90
16958;DHT22;8595;52.542;11.974;2023-06-22T02:41:19;21.20;99.90
16958;DHT22;8595;52.542;11.974;2023-06-22T02:43:47;21.20;99.90
16958;DHT22;8595;52.542;11.974;2023-06-22T02:46:14;21.20;99.90
16958;DHT22;8595;52.542;11.974;2023-06-22T02:48:41;21.10;99.90
16958;DHT22;8595;52.542;11.974;2023-06-22T02:51:09;21.10;99.90
16958;DHT22;8595;52.542;11.974;2023-06-22T02:53:36;21.10;99.90
16958;DHT22;8595;52.542;11.974;2023-06-22T02:56:05;21.20;99.90
16958;DHT22;8595;52.542;11.974;2023-06-22T02:58:32;21.20;99.90
16958;DHT22;8595;52.542;11.974;2023-06-22T03:01:04;21.10;99.90
16958;DHT22;8595;52.542;11.974;2023-06-22T03:03:31;21.10;99.90
16958;DHT22;8595;52.542;11.974;2023-06-22T03:05:57;21.10;99.90
16958;DHT22;8595;52.542;11.974;2023-06-22T03:08:28;21.00;99.90
16958;DHT22;8595;52.542;11.974;2023-06-22T03:10:55;20.80;99.90
16958;DHT22;8595;52.542;11.974;2023-06-22T03:13:21;20.80;99.90
16958;DHT22;8595;52.542;11.974;2023-06-22T03:15:48;20.80;99.90
16958;DHT22;8595;52.542;11.974;2023-06-22T03:18:18;20.90;99.90
16958;DHT22;8595;52.542;11.974;2023-06-22T03:20:47;20.90;99.90
16958;DHT22;8595;52.542;11.974;2023-06-22T03:23:14;20.80;99.90
16958;DHT22;8595;52.542;11.974;2023-06-22T03:25:42;20.70;99.90
16958;DHT22;8595;52.542;11.974;2023-06-22T03:28:10;20.80;99.90
16958;DHT22;8595;52.542;11.974;2023-06-22T03:30:37;20.80;99.90
16958;DHT22;8595;52.542;11.974;2023-06-22T03:33:03;20.70;99.90
16958;DHT22;8595;52.542;11.974;2023-06-22T03:35:30;20.80;99.90
16958;DHT22;8595;52.542;11.974;2023-06-22T03:37:58;20.70;99.90
16958;DHT22;8595;52.542;11.974;2023-06-22T03:40:25;20.80;99.90
16958;DHT22;8595;52.542;11.974;2023-06-22T03:42:53;20.80;99.90
16958;DHT22;8595;52.542;11.974;2023-06-22T03:45:19;20.90;99.90
16958;DHT22;8595;52.542;11.974;2023-06-22T03:47:46;20.90;99.90
16958;DHT22;8595;52.542;11.974;2023-06-22T03:50:13;20.90;99.90
16958;DHT22;8595;52.542;11.974;2023-06-22T03:52:40;20.80;99.90
16958;DHT22;8595;52.542;11.974;2023-06-22T03:55:07;20.90;99.90
16958;DHT22;8595;52.542;11.974;2023-06-22T03:57:34;20.90;99.90
16958;DHT22;8595;52.542;11.974;2023-06-22T04:00:03;21.00;99.90
16958;DHT22;8595;52.542;11.974;2023-06-22T04:02:31;21.10;99.90
16958;DHT22;8595;52.542;11.974;2023-06-22T04:04:58;21.10;99.90
16958;DHT22;8595;52.542;11.974;2023-06-22T04:07:24;21.10;99.90
16958;DHT22;8595;52.542;11.974;2023-06-22T04:09:51;21.20;99.90
16958;DHT22;8595;52.542;11.974;2023-06-22T04:12:18;21.30;99.90
16958;DHT22;8595;52.542;11.974;2023-06-22T04:14:45;21.30;99.90
16958;DHT22;8595;52.542;11.974;2023-06-22T04:17:13;21.40;99.90
16958;DHT22;8595;52.542;11.974;2023-06-22T04:19:40;21.40;99.90
16958;DHT22;8595;52.542;11.974;2023-06-22T04:22:07;21.50;99.90
16958;DHT22;8595;52.542;11.974;2023-06-22T04:24:34;21.60;99.90
16958;DHT22;8595;52.542;11.974;2023-06-22T04:27:00;21.60;99.90
16958;DHT22;8595;52.542;11.974;2023-06-22T04:29:29;21.60;99.90
16958;DHT22;8595;52.542;11.974;2023-06-22T04:31:58;21.70;99.90
16958;DHT22;8595;52.542;11.974;2023-06-22T04:34:29;21.70;99.90
16958;DHT22;8595;52.542;11.974;2023-06-22T04:36:56;21.80;99.90
16958;DHT22;8595;52.542;11.974;2023-06-22T04:39:23;21.90;99.90
16958;DHT22;8595;52.542;11.974;2023-06-22T04:41:51;21.80;99.90
16958;DHT22;8595;52.542;11.974;2023-06-22T04:44:18;21.90;99.90
16958;DHT22;8595;52.542;11.974;2023-06-22T04:46:49;21.90;99.90
16958;DHT22;8595;52.542;11.974;2023-06-22T04:49:20;21.90;99.90
16958;DHT22;8595;52.542;11.974;2023-06-22T04:51:48;22.00;99.90
16958;DHT22;8595;52.542;11.974;2023-06-22T04:54:17;22.00;99.90
16958;DHT22;8595;52.542;11.974;2023-06-22T04:56:43;22.10;99.90
16958;DHT22;8595;52.542;11.974;2023-06-22T04:59:12;22.00;99.90
16958;DHT22;8595;52.542;11.974;2023-06-22T05:01:39;22.10;99.90
16958;DHT22;8595;52.542;11.974;2023-06-22T05:04:06;22.10;99.90
16958;DHT22;8595;52.542;11.974;2023-06-22T05:06:33;22.20;99.90
16958;DHT22;8595;52.542;11.974;2023-06-22T05:09:01;22.20;99.90
16958;DHT22;8595;52.542;11.974;2023-06-22T05:11:29;22.30;99.90
16958;DHT22;8595;52.542;11.974;2023-06-22T05:13:56;22.50;99.90
16958;DHT22;8595;52.542;11.974;2023-06-22T05:16:23;22.60;99.90
16958;DHT22;8595;52.542;11.974;2023-06-22T05:18:54;22.60;99.90
16958;DHT22;8595;52.542;11.974;2023-06-22T05:21:24;22.70;99.90
16958;DHT22;8595;52.542;11.974;2023-06-22T05:23:52;22.80;99.90
16958;DHT22;8595;52.542;11.974;2023-06-22T05:26:21;22.90;99.90
16958;DHT22;8595;52.542;11.974;2023-06-22T05:28:48;22.80;99.90
16958;DHT22;8595;52.542;11.974;2023-06-22T05:31:16;22.90;99.90
16958;DHT22;8595;52.542;11.974;2023-06-22T05:33:46;23.00;99.90
16958;DHT22;8595;52.542;11.974;2023-06-22T05:36:13;23.10;99.90
16958;DHT22;8595;52.542;11.974;2023-06-22T05:38:41;23.10;99.90
16958;DHT22;8595;52.542;11.974;2023-06-22T05:41:08;23.20;99.90
16958;DHT22;8595;52.542;11.974;2023-06-22T05:43:36;23.30;99.90
16958;DHT22;8595;52.542;11.974;2023-06-22T05:46:03;23.40;99.90
16958;DHT22;8595;52.542;11.974;2023-06-22T05:48:30;23.40;99.90
16958;DHT22;8595;52.542;11.974;2023-06-22T05:50:58;23.50;99.90
16958;DHT22;8595;52.542;11.974;2023-06-22T05:53:25;23.50;99.90
16958;DHT22;8595;52.542;11.974;2023-06-22T05:55:52;23.50;99.90
16958;DHT22;8595;52.542;11.974;2023-06-22T05:58:19;23.50;99.90
16958;DHT22;8595;52.542;11.974;2023-06-22T06:00:48;23.60;99.90
16958;DHT22;8595;52.542;11.974;2023-06-22T06:03:15;23.50;99.90
16958;DHT22;8595;52.542;11.974;2023-06-22T06:05:42;23.70;99.90
16958;DHT22;8595;52.542;11.974;2023-06-22T06:08:10;23.70;99.90
16958;DHT22;8595;52.542;11.974;2023-06-22T06:10:37;23.80;99.90
16958;DHT22;8595;52.542;11.974;2023-06-22T06:13:04;23.90;99.90
16958;DHT22;8595;52.542;11.974;2023-06-22T06:15:31;24.00;99.90
16958;DHT22;8595;52.542;11.974;2023-06-22T06:17:59;24.20;99.90
16958;DHT22;8595;52.542;11.974;2023-06-22T06:20:27;24.30;99.90
16958;DHT22;8595;52.542;11.974;2023-06-22T06:22:54;24.40;99.90
16958;DHT22;8595;52.542;11.974;2023-06-22T06:25:21;24.60;99.90
16958;DHT22;8595;52.542;11.974;2023-06-22T06:27:48;24.60;99.90
16958;DHT22;8595;52.542;11.974;2023-06-22T06:30:17;24.60;99.90
16958;DHT22;8595;52.542;11.974;2023-06-22T06:32:44;24.70;99.90
16958;DHT22;8595;52.542;11.974;2023-06-22T06:35:14;24.70;99.90
16958;DHT22;8595;52.542;11.974;2023-06-22T06:37:42;24.90;99.90
16958;DHT22;8595;52.542;11.974;2023-06-22T06:40:10;25.00;99.90
16958;DHT22;8595;52.542;11.974;2023-06-22T06:42:38;25.10;99.90
16958;DHT22;8595;52.542;11.974;2023-06-22T06:45:06;25.10;99.90
16958;DHT22;8595;52.542;11.974;2023-06-22T06:47:33;25.10;99.90
16958;DHT22;8595;52.542;11.974;2023-06-22T06:50:00;25.00;99.90
16958;DHT22;8595;52.542;11.974;2023-06-22T06:52:28;25.00;99.90
16958;DHT22;8595;52.542;11.974;2023-06-22T06:54:55;25.20;99.90
16958;DHT22;8595;52.542;11.974;2023-06-22T06:57:22;25.30;99.90
16958;DHT22;8595;52.542;11.974;2023-06-22T06:59:54;25.30;99.90
16958;DHT22;8595;52.542;11.974;2023-06-22T07:02:22;25.30;99.90
16958;DHT22;8595;52.542;11.974;2023-06-22T07:04:48;25.30;99.90
16958;DHT22;8595;52.542;11.974;2023-06-22T07:07:16;25.30;99.90
16958;DHT22;8595;52.542;11.974;2023-06-22T07:09:44;25.40;99.90
16958;DHT22;8595;52.542;11.974;2023-06-22T07:12:11;25.40;99.90
16958;DHT22;8595;52.542;11.974;2023-06-22T07:14:37;25.30;99.90
16958;DHT22;8595;52.542;11.974;2023-06-22T07:17:04;25.30;99.90
16958;DHT22;8595;52.542;11.974;2023-06-22T07:19:33;25.30;99.90
16958;DHT22;8595;52.542;11.974;2023-06-22T07:21:59;25.30;99.90
16958;DHT22;8595;52.542;11.974;2023-06-22T07:24:26;25.30;99.90
16958;DHT22;8595;52.542;11.974;2023-06-22T07:26:55;25.30;99.90
16958;DHT22;8595;52.542;11.974;2023-06-22T07:29:25;25.50;99.90
16958;DHT22;8595;52.542;11.974;2023-06-22T07:31:52;25.60;99.90
16958;DHT22;8595;52.542;11.974;2023-06-22T07:34:19;25.60;99.90
16958;DHT22;8595;52.542;11.974;2023-06-22T07:36:46;25.70;99.90
16958;DHT22;8595;52.542;11.974;2023-06-22T07:39:13;25.90;99.90
16958;DHT22;8595;52.542;11.974;2023-06-22T07:41:40;26.00;99.90
16958;DHT22;8595;52.542;11.974;2023-06-22T07:44:09;26.20;99.90
16958;DHT22;8595;52.542;11.974;2023-06-22T07:46:36;26.30;99.90
16958;DHT22;8595;52.542;11.974;2023-06-22T07:49:04;26.60;99.90
16958;DHT22;8595;52.542;11.974;2023-06-22T07:51:31;26.90;99.90
16958;DHT22;8595;52.542;11.974;2023-06-22T07:53:57;27.00;99.90
16958;DHT22;8595;52.542;11.974;2023-06-22T07:56:24;27.30;99.90
16958;DHT22;8595;52.542;11.974;2023-06-22T07:58:51;27.30;99.90
16958;DHT22;8595;52.542;11.974;2023-06-22T08:01:20;27.30;99.90
16958;DHT22;8595;52.542;11.974;2023-06-22T08:03:50;27.40;99.90
16958;DHT22;8595;52.542;11.974;2023-06-22T08:06:17;27.50;99.90
16958;DHT22;8595;52.542;11.974;2023-06-22T08:08:44;27.50;99.90
16958;DHT22;8595;52.542;11.974;2023-06-22T08:11:13;27.50;99.90
16958;DHT22;8595;52.542;11.974;2023-06-22T08:13:40;27.60;99.90
16958;DHT22;8595;52.542;11.974;2023-06-22T08:16:07;27.70;99.90
16958;DHT22;8595;52.542;11.974;2023-06-22T08:18:35;27.60;99.90
16958;DHT22;8595;52.542;11.974;2023-06-22T08:21:02;27.70;99.90
16958;DHT22;8595;52.542;11.974;2023-06-22T08:23:28;27.60;99.90
16958;DHT22;8595;52.542;11.974;2023-06-22T08:25:55;27.80;99.90
16958;DHT22;8595;52.542;11.974;2023-06-22T08:28:22;27.80;99.90
16958;DHT22;8595;52.542;11.974;2023-06-22T08:30:49;27.70;99.90
16958;DHT22;8595;52.542;11.974;2023-06-22T08:33:15;27.90;99.90
16958;DHT22;8595;52.542;11.974;2023-06-22T08:35:44;28.00;99.90
16958;DHT22;8595;52.542;11.974;2023-06-22T08:38:11;28.00;99.90
16958;DHT22;8595;52.542;11.974;2023-06-22T08:40:39;28.10;99.90
16958;DHT22;8595;52.542;11.974;2023-06-22T08:43:06;28.00;99.90
16958;DHT22;8595;52.542;11.974;2023-06-22T08:45:34;28.00;99.90
16958;DHT22;8595;52.542;11.974;2023-06-22T08:48:01;28.00;99.90
16958;DHT22;8595;52.542;11.974;2023-06-22T08:50:28;28.40;99.90
16958;DHT22;8595;52.542;11.974;2023-06-22T08:52:56;28.60;99.90
16958;DHT22;8595;52.542;11.974;2023-06-22T08:55:22;28.90;99.90
16958;DHT22;8595;52.542;11.974;2023-06-22T08:57:49;29.10;99.90
16958;DHT22;8595;52.542;11.974;2023-06-22T09:00:17;29.10;99.90
16958;DHT22;8595;52.542;11.974;2023-06-22T09:02:46;29.10;99.90
16958;DHT22;8595;52.542;11.974;2023-06-22T09:05:13;29.10;99.90
16958;DHT22;8595;52.542;11.974;2023-06-22T09:07:40;29.10;99.90
16958;DHT22;8595;52.542;11.974;2023-06-22T09:10:09;29.20;99.90
16958;DHT22;8595;52.542;11.974;2023-06-22T09:12:37;29.30;99.90
16958;DHT22;8595;52.542;11.974;2023-06-22T09:15:04;29.60;99.90
16958;DHT22;8595;52.542;11.974;2023-06-22T09:17:33;29.90;99.90
16958;DHT22;8595;52.542;11.974;2023-06-22T09:20:00;29.90;99.90
16958;DHT22;8595;52.542;11.974;2023-06-22T09:22:31;29.70;99.90
16958;DHT22;8595;52.542;11.974;2023-06-22T09:24:58;29.60;99.90
16958;DHT22;8595;52.542;11.974;2023-06-22T09:27:26;29.60;99.90
16958;DHT22;8595;52.542;11.974;2023-06-22T09:29:53;29.40;99.90
16958;DHT22;8595;52.542;11.974;2023-06-22T09:32:20;29.20;99.90
16958;DHT22;8595;52.542;11.974;2023-06-22T09:34:46;29.00;99.90
16958;DHT22;8595;52.542;11.974;2023-06-22T09:37:13;28.80;99.90
16958;DHT22;8595;52.542;11.974;2023-06-22T09:39:40;29.00;99.90
16958;DHT22;8595;52.542;11.974;2023-06-22T09:42:07;29.10;99.90
16958;DHT22;8595;52.542;11.974;2023-06-22T09:44:35;29.00;99.90
16958;DHT22;8595;52.542;11.974;2023-06-22T09:47:02;29.20;99.90
16958;DHT22;8595;52.542;11.974;2023-06-22T09:49:31;30.10;99.90
16958;DHT22;8595;52.542;11.974;2023-06-22T09:51:58;30.70;99.90
16958;DHT22;8595;52.542;11.974;2023-06-22T09:54:25;31.40;99.90
16958;DHT22;8595;52.542;11.974;2023-06-22T09:56:52;32.10;99.90
16958;DHT22;8595;52.542;11.974;2023-06-22T09:59:18;32.60;99.90
16958;DHT22;8595;52.542;11.974;2023-06-22T10:01:46;33.20;99.90
16958;DHT22;8595;52.542;11.974;2023-06-22T10:04:15;33.50;99.90
16958;DHT22;8595;52.542;11.974;2023-06-22T10:06:42;33.60;99.90
16958;DHT22;8595;52.542;11.974;2023-06-22T10:09:08;33.60;99.90
16958;DHT22;8595;52.542;11.974;2023-06-22T10:11:35;33.30;99.90
16958;DHT22;8595;52.542;11.974;2023-06-22T10:14:02;33.70;99.90
16958;DHT22;8595;52.542;11.974;2023-06-22T10:16:33;33.90;99.90
16958;DHT22;8595;52.542;11.974;2023-06-22T10:19:02;34.10;99.90
16958;DHT22;8595;52.542;11.974;2023-06-22T10:21:29;33.90;99.90
16958;DHT22;8595;52.542;11.974;2023-06-22T10:23:56;34.10;99.90
16958;DHT22;8595;52.542;11.974;2023-06-22T10:26:23;34.50;99.90
16958;DHT22;8595;52.542;11.974;2023-06-22T10:28:50;34.70;99.90
16958;DHT22;8595;52.542;11.974;2023-06-22T10:31:17;34.70;99.90
16958;DHT22;8595;52.542;11.974;2023-06-22T10:33:44;35.00;99.90
16958;DHT22;8595;52.542;11.974;2023-06-22T10:36:12;35.30;99.90
16958;DHT22;8595;52.542;11.974;2023-06-22T10:38:39;35.50;99.90
16958;DHT22;8595;52.542;11.974;2023-06-22T10:41:05;35.00;99.90
16958;DHT22;8595;52.542;11.974;2023-06-22T10:43:32;34.90;99.90
16958;DHT22;8595;52.542;11.974;2023-06-22T10:45:59;35.20;99.90
16958;DHT22;8595;52.542;11.974;2023-06-22T10:48:26;35.10;99.90
16958;DHT22;8595;52.542;11.974;2023-06-22T10:50:53;35.20;99.90
16958;DHT22;8595;52.542;11.974;2023-06-22T10:53:21;35.40;99.90
16958;DHT22;8595;52.542;11.974;2023-06-22T10:55:48;35.90;99.90
16958;DHT22;8595;52.542;11.974;2023-06-22T10:58:15;36.00;99.90
16958;DHT22;8595;52.542;11.974;2023-06-22T11:00:41;36.40;99.90
16958;DHT22;8595;52.542;11.974;2023-06-22T11:03:08;36.50;99.90
16958;DHT22;8595;52.542;11.974;2023-06-22T11:05:35;36.50;99.90
16958;DHT22;8595;52.542;11.974;2023-06-22T11:08:01;36.60;99.90
16958;DHT22;8595;52.542;11.974;2023-06-22T11:10:29;36.50;99.90
16958;DHT22;8595;52.542;11.974;2023-06-22T11:12:57;36.60;99.90
16958;DHT22;8595;52.542;11.974;2023-06-22T11:15:24;36.80;99.90
16958;DHT22;8595;52.542;11.974;2023-06-22T11:17:51;36.70;99.90
16958;DHT22;8595;52.542;11.974;2023-06-22T11:20:18;36.50;99.90
16958;DHT22;8595;52.542;11.974;2023-06-22T11:22:46;36.30;99.90
16958;DHT22;8595;52.542;11.974;2023-06-22T11:25:12;36.40;99.90
16958;DHT22;8595;52.542;11.974;2023-06-22T11:27:41;36.40;99.90
16958;DHT22;8595;52.542;11.974;2023-06-22T11:30:08;36.10;99.90
16958;DHT22;8595;52.542;11.974;2023-06-22T11:32:35;36.30;99.90
16958;DHT22;8595;52.542;11.974;2023-06-22T11:35:02;36.60;99.90
16958;DHT22;8595;52.542;11.974;2023-06-22T11:37:29;36.00;99.90
16958;DHT22;8595;52.542;11.974;2023-06-22T11:39:56;36.00;99.90
16958;DHT22;8595;52.542;11.974;2023-06-22T11:42:23;36.00;99.90
16958;DHT22;8595;52.542;11.974;2023-06-22T11:44:52;35.90;99.90
16958;DHT22;8595;52.542;11.974;2023-06-22T11:47:19;36.30;99.90
16958;DHT22;8595;52.542;11.974;2023-06-22T11:49:45;36.20;99.90
16958;DHT22;8595;52.542;11.974;2023-06-22T11:52:12;35.50;99.90
16958;DHT22;8595;52.542;11.974;2023-06-22T11:54:41;34.50;99.90
16958;DHT22;8595;52.542;11.974;2023-06-22T11:57:08;34.60;99.90
16958;DHT22;8595;52.542;11.974;2023-06-22T11:59:34;35.00;99.90
16958;DHT22;8595;52.542;11.974;2023-06-22T12:02:03;35.40;99.90
16958;DHT22;8595;52.542;11.974;2023-06-22T12:04:30;35.40;99.90
16958;DHT22;8595;52.542;11.974;2023-06-22T12:06:57;35.60;99.90
16958;DHT22;8595;52.542;11.974;2023-06-22T12:09:24;35.50;99.90
16958;DHT22;8595;52.542;11.974;2023-06-22T12:11:51;35.20;99.90
16958;DHT22;8595;52.542;11.974;2023-06-22T12:14:18;35.70;99.90
16958;DHT22;8595;52.542;11.974;2023-06-22T12:16:44;35.50;99.90
16958;DHT22;8595;52.542;11.974;2023-06-22T12:19:13;34.90;99.90
16958;DHT22;8595;52.542;11.974;2023-06-22T12:21:39;34.50;99.90
16958;DHT22;8595;52.542;11.974;2023-06-22T12:24:07;34.70;99.90
16958;DHT22;8595;52.542;11.974;2023-06-22T12:26:33;35.10;99.90
16958;DHT22;8595;52.542;11.974;2023-06-22T12:29:00;35.50;99.90
16958;DHT22;8595;52.542;11.974;2023-06-22T12:31:27;36.00;99.90
16958;DHT22;8595;52.542;11.974;2023-06-22T12:33:53;36.40;99.90
16958;DHT22;8595;52.542;11.974;2023-06-22T12:36:21;36.20;99.90
16958;DHT22;8595;52.542;11.974;2023-06-22T12:38:49;36.10;99.90
16958;DHT22;8595;52.542;11.974;2023-06-22T12:41:17;36.40;99.90
16958;DHT22;8595;52.542;11.974;2023-06-22T12:43:44;36.00;99.90
16958;DHT22;8595;52.542;11.974;2023-06-22T12:46:10;35.50;99.90
16958;DHT22;8595;52.542;11.974;2023-06-22T12:48:37;35.20;99.90
16958;DHT22;8595;52.542;11.974;2023-06-22T12:51:07;34.90;99.90
16958;DHT22;8595;52.542;11.974;2023-06-22T12:53:36;34.70;99.90
16958;DHT22;8595;52.542;11.974;2023-06-22T12:56:02;34.50;99.90
16958;DHT22;8595;52.542;11.974;2023-06-22T12:58:29;34.90;99.90
16958;DHT22;8595;52.542;11.974;2023-06-22T13:00:56;35.20;99.90
16958;DHT22;8595;52.542;11.974;2023-06-22T13:03:23;35.80;99.90
16958;DHT22;8595;52.542;11.974;2023-06-22T13:05:52;35.90;99.90
16958;DHT22;8595;52.542;11.974;2023-06-22T13:08:19;35.90;99.90
16958;DHT22;8595;52.542;11.974;2023-06-22T13:10:47;35.90;99.90
16958;DHT22;8595;52.542;11.974;2023-06-22T13:13:14;35.90;99.90
16958;DHT22;8595;52.542;11.974;2023-06-22T13:15:41;36.10;99.90
16958;DHT22;8595;52.542;11.974;2023-06-22T13:18:08;36.50;99.90
16958;DHT22;8595;52.542;11.974;2023-06-22T13:20:35;36.60;99.90
16958;DHT22;8595;52.542;11.974;2023-06-22T13:23:02;36.30;99.90
16958;DHT22;8595;52.542;11.974;2023-06-22T13:25:29;35.80;99.90
16958;DHT22;8595;52.542;11.974;2023-06-22T13:27:58;35.40;99.90
16958;DHT22;8595;52.542;11.974;2023-06-22T13:30:24;34.90;99.90
16958;DHT22;8595;52.542;11.974;2023-06-22T13:32:51;34.60;99.90
16958;DHT22;8595;52.542;11.974;2023-06-22T13:35:18;34.50;99.90
16958;DHT22;8595;52.542;11.974;2023-06-22T13:37:47;34.40;99.90
16958;DHT22;8595;52.542;11.974;2023-06-22T13:40:14;34.30;99.90
16958;DHT22;8595;52.542;11.974;2023-06-22T13:42:42;34.40;99.90
16958;DHT22;8595;52.542;11.974;2023-06-22T13:45:11;34.50;99.90
16958;DHT22;8595;52.542;11.974;2023-06-22T13:47:37;34.40;99.90
16958;DHT22;8595;52.542;11.974;2023-06-22T13:50:05;34.30;99.90
16958;DHT22;8595;52.542;11.974;2023-06-22T13:52:33;34.80;99.90
16958;DHT22;8595;52.542;11.974;2023-06-22T13:55:00;34.60;99.90
16958;DHT22;8595;52.542;11.974;2023-06-22T13:57:26;34.80;99.90
16958;DHT22;8595;52.542;11.974;2023-06-22T13:59:53;34.80;99.90
16958;DHT22;8595;52.542;11.974;2023-06-22T14:02:21;34.60;99.90
16958;DHT22;8595;52.542;11.974;2023-06-22T14:04:48;34.50;99.90
16958;DHT22;8595;52.542;11.974;2023-06-22T14:07:15;34.90;99.90
16958;DHT22;8595;52.542;11.974;2023-06-22T14:09:41;35.30;99.90
16958;DHT22;8595;52.542;11.974;2023-06-22T14:12:10;35.10;99.90
16958;DHT22;8595;52.542;11.974;2023-06-22T14:14:37;34.70;99.90
16958;DHT22;8595;52.542;11.974;2023-06-22T14:17:04;34.30;99.90
16958;DHT22;8595;52.542;11.974;2023-06-22T14:19:32;34.50;99.90
16958;DHT22;8595;52.542;11.974;2023-06-22T14:21:59;35.20;99.90
16958;DHT22;8595;52.542;11.974;2023-06-22T14:24:26;35.90;99.90
16958;DHT22;8595;52.542;11.974;2023-06-22T14:26:54;36.20;99.90
16958;DHT22;8595;52.542;11.974;2023-06-22T14:29:21;36.30;99.90
16958;DHT22;8595;52.542;11.974;2023-06-22T14:31:47;36.60;99.90
16958;DHT22;8595;52.542;11.974;2023-06-22T14:34:15;36.90;99.90
16958;DHT22;8595;52.542;11.974;2023-06-22T14:36:43;37.10;99.90
16958;DHT22;8595;52.542;11.974;2023-06-22T14:39:10;36.80;99.90
16958;DHT22;8595;52.542;11.974;2023-06-22T14:41:37;36.50;99.90
16958;DHT22;8595;52.542;11.974;2023-06-22T14:44:04;36.20;99.90
16958;DHT22;8595;52.542;11.974;2023-06-22T14:46:31;36.00;99.90
16958;DHT22;8595;52.542;11.974;2023-06-22T14:48:58;36.10;99.90
16958;DHT22;8595;52.542;11.974;2023-06-22T14:51:24;36.30;99.90
16958;DHT22;8595;52.542;11.974;2023-06-22T14:53:53;36.30;99.90
16958;DHT22;8595;52.542;11.974;2023-06-22T14:56:20;36.60;99.90
16958;DHT22;8595;52.542;11.974;2023-06-22T14:58:47;36.50;99.90
16958;DHT22;8595;52.542;11.974;2023-06-22T15:01:15;36.70;99.90
16958;DHT22;8595;52.542;11.974;2023-06-22T15:03:42;36.90;99.90
16958;DHT22;8595;52.542;11.974;2023-06-22T15:06:09;37.10;99.90
16958;DHT22;8595;52.542;11.974;2023-06-22T15:08:37;37.10;99.90
16958;DHT22;8595;52.542;11.974;2023-06-22T15:11:06;37.00;99.90
16958;DHT22;8595;52.542;11.974;2023-06-22T15:13:34;36.90;99.90
16958;DHT22;8595;52.542;11.974;2023-06-22T15:16:01;36.80;99.90
16958;DHT22;8595;52.542;11.974;2023-06-22T15:18:28;36.60;99.90
16958;DHT22;8595;52.542;11.974;2023-06-22T15:20:55;36.30;99.90
16958;DHT22;8595;52.542;11.974;2023-06-22T15:23:23;36.50;99.90
16958;DHT22;8595;52.542;11.974;2023-06-22T15:25:51;36.50;99.90
16958;DHT22;8595;52.542;11.974;2023-06-22T15:28:19;36.60;99.90
16958;DHT22;8595;52.542;11.974;2023-06-22T15:30:46;36.70;99.90
16958;DHT22;8595;52.542;11.974;2023-06-22T15:33:13;36.80;99.90